Silverton Ultra Marathon 100K Course: All-time Best

Start to Bandera Mine (Aid5): 50.2 miles, 8,189 feet elevation gain, 6,358 feet elevation loss

Searched 3 events from September 24, 2016 to August 11, 2018
Overall/
Gender
Name Category From Year Finished? Segment Time
1/1 Chris Marcinek Male, 30 Montrose, CO 2018 Yes 09:49:11
2/2 Jonathan Rea Male, 25 Lakewood, CO 2017 Yes 10:15:20
3/3 Garrett Smith Male, 37 Tucson, AZ 2017 Yes 10:20:20
4/4 Seth Wealing Male, 38 Boulder, CO 2017 Yes 10:46:20
5/5 Robert Steffens Male, 29 Carbondale, CO 2018 Yes 10:46:47
6/6 Josh Fuller Male, 30 Jackson, WY 2018 Yes 11:25:36
7/7 Ryan Marble Male, 25 Silverton, CO 2018 Yes 11:28:51
8/8 Nicholas Krueger Male, 34 Durango, CO 2016 Yes 11:38:00
9/9 Lincoln Davie Male, 34 Wheat Ridge, CO 2018 Yes 11:39:32
10/10 Kris Tyson Male, 35 Fort Collins, CO 2016 Yes 11:43:00
11/11 Joshua Felix Male, 40 Copper Mountain, CO 2018 Yes 11:57:20
12/12 Garrett Dickson Male, 28 Fruita, CO 2018 Yes 12:15:04
13/13 Cody Braford Male, 42 Silverton, CO 2018 Yes 12:17:18
14/14 Jason Morgan Male, 43 Green Mountain Falls, CO 2018 Yes 12:27:53
15/15 Andre Chaves Male, 31 Hartsel, CO 2016 Yes 12:29:00
16/16 Shaun Higgins Male, 30 Denver, CO 2016 Yes 12:29:00
17/17 Vincent Dorzweiler Male, 30 Boulder, CO 2016 Yes 12:34:00
18/18 Rick Schafer Male, 47 Denver, CO 2018 Yes 12:41:10
19/19 Edward Trzcienski Male, 55 Albuquerque, NM 2017 Yes 12:47:20
20/20 Brian Macey Male, 32 Lakewood, CO 2018 Yes 12:48:12
22/21 Michael Stesney Male, 46 Denver, CO 2016 Yes 12:59:00
23/22 Jordan Bierma Male, 31 Silverton, CO 2018 Yes 12:59:10
25/23 Andrew Reed Male, 27 Longmont, CO 2017 Yes 13:13:20
26/24 Jeremy Layer Male, 46 Erie, CO 2018 Yes 13:16:52
27/25 Tyler Gault Male, 27 Silverton, CO 2018 Yes 13:17:58
28/26 Aaron Johnson Male, 32 Larkspur, CA 2016 Yes 13:22:00
29/28 Andrew Reed Male, 26 Longmont, CO 2016 Yes 13:24:00
30/27 Iain Saunderson Male, 47 Parker, CO 2016 Yes 13:24:00
31/29 Jason Veliquette Male, 37 Fort Collins, CO 2017 Yes 13:31:20
32/30 Christopher Concannon Male, 29 Denver, CO 2016 Yes 13:32:00
33/31 Justin Busch Male, 31 Golden, CO 2016 Yes 13:33:00
34/32 Peter Swank Male, 30 Boulder, CO 2016 Yes 13:35:00
36/33 Brandon Koehler Male, 27 Gardiner, MT 2016 Yes 13:48:00
38/34 Jonathan Rea Male, 24 Golden, CO 2016 Yes 13:51:00
39/35 Mark Werkmeister Male, 55 Santa Fe, NM 2016 Yes 14:06:00
40/36 Tetsuro Ogata Male, 34 Takamatsu, Japan 2016 Yes 14:08:00
41/37 Patrick Sheridan Male, 27 Thornton, CO 2018 Yes 14:12:00
42/39 David Hill Male, 47 Denver, CO 2016 Yes 14:15:00
43/38 Walter Olsen Male, 39 Lakewood, CO 2016 Yes 14:15:00
44/40 David Wiskowski Male, 39 Mettawa, IL 2016 Yes 14:24:00
46/41 Jason Platt Male, 30 Arvada, CO 2018 Yes 14:41:00
47/42 David Wiskowski Male, 40 San Clemente, CA 2017 Yes 14:42:20
48/44 Garrett Gibbons Male, 40 Centennial, CO 2018 Yes 14:43:00
49/43 Tristan Rubadeau Male, 33 Telluride, CO 2018 Yes 14:43:00
50/45 Steve Collins Male, 45 Durango, CO 2016 Yes 14:54:00
54/46 Charles Johnston Male, 33 Montrose, CO 2017 Yes 15:36:20
55/47 Lamar Jost Male, 39 Evergreen, CO 2016 Yes 15:42:00
57/48 Dan Ainslie Male, 44 Arvada, CO 2018 Yes 16:02:00
58/49 Mina Ebrahem Male, 28 Abo Korkas, Egypt 2017 Yes 16:03:20
60/50 Lon Rathmell Male, 48 Colorado Springs, CO 2016 Yes 16:08:00